Time;durP1;ratioP1;P1;durP2;ratioP2;P2;SDS_P1;SDS_P2;PMS_P1;PMS_P2;Temp;Humidity;BMP_temperature;BMP_pressure;BME280_temperature;BME280_humidity;BME280_pressure;Samples;Min_cycle;Max_cycle;Signal;HPM_P1;HPM_P2
2022/02/04 00:23:18;;;;;;;25.20;13.80;;;;;;;1.77;100.00;98867.46;105302;1271;61330;-74
2022/02/04 00:28:25;;;;;;;14.10;10.80;;;;;;;1.77;100.00;98867.45;105301;1271;69209;-75
2022/02/04 00:33:55;;;;;;;13.70;10.70;;;;;;;1.77;100.00;98860.98;104888;1270;61265;-75
2022/02/04 00:36:29;;;;;;;13.30;8.80;;;;;;;1.77;100.00;98858.69;105314;1271;61253;-74
2022/02/04 00:38:57;;;;;;;15.40;10.20;;;;;;;1.77;100.00;98853.27;105272;1271;75261;-74
2022/02/04 00:41:28;;;;;;;13.40;10.00;;;;;;;1.78;100.00;98848.86;105282;1271;70118;-75
2022/02/04 00:43:57;;;;;;;12.70;10.00;;;;;;;1.78;100.00;98838.68;105299;1269;73340;-74
2022/02/04 00:47:28;;;;;;;15.00;8.30;;;;;;;1.79;100.00;98832.89;105229;1270;61300;-74
2022/02/04 00:49:29;;;;;;;15.00;9.60;;;;;;;1.78;100.00;98825.20;105127;1271;62786;-75
2022/02/04 00:52:05;;;;;;;16.50;11.80;;;;;;;1.77;100.00;98819.11;105227;1271;75400;-74
2022/02/04 00:57:48;;;;;;;17.50;10.50;;;;;;;1.77;100.00;98810.17;104869;1277;74093;-76
2022/02/04 01:27:35;;;;;;;23.20;17.50;;;;;;;1.72;100.00;98753.23;105296;1271;61322;-74
2022/02/04 01:30:15;;;;;;;26.00;17.00;;;;;;;1.73;100.00;98748.29;105274;1271;61864;-75
2022/02/04 01:32:41;;;;;;;24.10;15.50;;;;;;;1.72;100.00;98739.91;105187;1272;75108;-74
2022/02/04 01:35:08;;;;;;;22.90;17.20;;;;;;;1.72;100.00;98732.42;105287;1270;61312;-75
2022/02/04 01:37:34;;;;;;;27.00;18.50;;;;;;;1.71;100.00;98721.92;105036;1271;74597;-75
2022/02/04 01:40:01;;;;;;;26.90;19.40;;;;;;;1.69;100.00;98718.84;105278;1271;61277;-75
2022/02/04 01:42:28;;;;;;;28.10;19.30;;;;;;;1.69;100.00;98712.21;105283;1271;61208;-75
2022/02/04 01:44:54;;;;;;;27.40;18.40;;;;;;;1.68;100.00;98709.08;105281;1271;61135;-74
2022/02/04 01:47:21;;;;;;;24.70;18.50;;;;;;;1.68;100.00;98701.20;105267;1271;61374;-75
2022/02/04 01:49:47;;;;;;;25.20;18.60;;;;;;;1.68;100.00;98694.89;105299;1271;61374;-75
2022/02/04 01:52:15;;;;;;;24.70;16.30;;;;;;;1.68;100.00;98688.40;105276;1271;61358;-74
2022/02/04 01:54:41;;;;;;;29.20;16.60;;;;;;;1.67;100.00;98688.27;105270;1271;61950;-74
2022/02/04 01:57:08;;;;;;;24.30;17.10;;;;;;;1.68;100.00;98692.98;105268;1271;76209;-74
2022/02/04 01:59:35;;;;;;;23.70;17.60;;;;;;;1.66;100.00;98696.36;105327;1271;69749;-75
2022/02/04 02:02:02;;;;;;;31.40;24.80;;;;;;;1.64;100.00;98696.79;105258;1271;73197;-75
2022/02/04 02:04:29;;;;;;;28.30;22.10;;;;;;;1.63;100.00;98697.36;105277;1271;61486;-74
2022/02/04 02:06:58;;;;;;;26.90;21.00;;;;;;;1.63;100.00;98691.94;105286;1270;61201;-73
2022/02/04 02:09:36;;;;;;;23.50;17.60;;;;;;;1.63;100.00;98690.52;105290;1271;75508;-74
2022/02/04 02:12:07;;;;;;;24.50;18.20;;;;;;;1.64;100.00;98677.20;105285;1271;69539;-74
2022/02/04 02:14:34;;;;;;;20.60;15.20;;;;;;;1.65;100.00;98682.38;104762;1274;73483;-76
2022/02/04 02:34:14;;;;;;;43.20;32.50;;;;;;;1.68;100.00;98671.61;105299;1271;61284;-74
2022/02/04 02:39:16;;;;;;;32.90;24.60;;;;;;;1.68;100.00;98665.46;105289;1271;61409;-74
2022/02/04 02:59:26;;;;;;;53.00;42.50;;;;;;;1.55;100.00;98673.45;105364;1270;61850;-75
2022/02/04 03:01:53;;;;;;;57.50;43.50;;;;;;;1.56;100.00;98672.06;105112;1271;75142;-74
2022/02/04 03:04:19;;;;;;;53.30;43.00;;;;;;;1.57;100.00;98669.02;105294;1271;70240;-74
2022/02/04 03:06:47;;;;;;;54.00;42.20;;;;;;;1.59;100.00;98668.75;105251;1271;74157;-74
2022/02/04 03:09:17;;;;;;;53.50;43.10;;;;;;;1.59;100.00;98676.16;105480;1271;61337;-73
2022/02/04 03:11:43;;;;;;;60.00;48.60;;;;;;;1.55;100.00;98677.16;105237;1271;61816;-74
2022/02/04 03:14:11;;;;;;;60.80;49.70;;;;;;;1.52;100.00;98672.51;105314;1271;76349;-74
2022/02/04 03:16:37;;;;;;;58.00;44.30;;;;;;;1.52;100.00;98669.19;105265;1271;70241;-74
2022/02/04 03:19:07;;;;;;;48.90;38.10;;;;;;;1.52;100.00;98668.14;105018;1271;70263;-75
2022/02/04 03:21:38;;;;;;;48.00;37.60;;;;;;;1.49;100.00;98665.61;105396;1270;61271;-74
2022/02/04 03:24:10;;;;;;;43.30;37.50;;;;;;;1.49;100.00;98663.16;105285;1271;61262;-74
2022/02/04 03:29:09;;;;;;;46.80;36.90;;;;;;;1.50;100.00;98665.95;105292;1271;69357;-74
2022/02/04 03:31:43;;;;;;;39.40;33.50;;;;;;;1.51;100.00;98664.69;105295;1271;73313;-74
2022/02/04 03:34:09;;;;;;;45.00;34.50;;;;;;;1.52;100.00;98659.92;105283;1271;61388;-74
2022/02/04 03:36:36;;;;;;;44.00;35.70;;;;;;;1.52;100.00;98655.19;105294;1271;61926;-74
2022/02/04 03:39:04;;;;;;;48.30;38.50;;;;;;;1.52;100.00;98652.55;105405;1271;76287;-74
2022/02/04 03:41:30;;;;;;;47.40;37.70;;;;;;;1.52;100.00;98646.97;105271;1271;69361;-76
2022/02/04 03:43:57;;;;;;;52.40;41.90;;;;;;;1.51;100.00;98646.48;104328;1272;1004780;-74
2022/02/04 03:46:24;;;;;;;47.70;38.30;;;;;;;1.50;100.00;98652.29;105322;1271;61256;-74
2022/02/04 03:48:51;;;;;;;64.00;51.80;;;;;;;1.49;100.00;98649.19;105298;1271;61867;-74
2022/02/04 03:51:17;;;;;;;63.60;49.60;;;;;;;1.47;100.00;98646.27;105243;1269;61153;-75
2022/02/04 03:53:44;;;;;;;66.80;51.70;;;;;;;1.44;100.00;98644.27;105292;1271;61253;-75
2022/02/04 03:56:11;;;;;;;48.30;35.90;;;;;;;1.40;100.00;98639.71;105040;1271;74181;-74
2022/02/04 03:58:38;;;;;;;33.10;27.30;;;;;;;1.36;100.00;98642.82;105294;1271;61262;-74
2022/02/04 04:01:05;;;;;;;35.80;28.20;;;;;;;1.35;100.00;98647.95;105164;1271;61181;-76
2022/02/04 04:03:33;;;;;;;37.50;28.50;;;;;;;1.33;100.00;98647.48;105237;1271;76287;-74
2022/02/04 04:06:00;;;;;;;38.80;31.80;;;;;;;1.30;100.00;98649.83;104982;1271;69297;-75
2022/02/04 04:08:27;;;;;;;45.30;34.40;;;;;;;1.26;100.00;98650.16;105308;1271;72685;-75
2022/02/04 04:10:53;;;;;;;46.80;39.10;;;;;;;1.20;100.00;98652.64;105278;1271;61252;-74
2022/02/04 04:13:21;;;;;;;49.00;39.40;;;;;;;1.15;100.00;98651.08;105305;1271;61292;-76
2022/02/04 04:15:48;;;;;;;50.70;39.30;;;;;;;1.11;100.00;98654.35;105302;1271;76531;-76
2022/02/04 04:18:14;;;;;;;49.10;38.40;;;;;;;1.08;100.00;98649.05;105305;1271;70392;-75
2022/02/04 04:20:44;;;;;;;49.20;37.50;;;;;;;1.07;100.00;98643.82;105292;1269;73389;-76
2022/02/04 04:23:12;;;;;;;51.80;37.40;;;;;;;1.04;100.00;98641.29;105243;1271;61425;-74
2022/02/04 04:25:39;;;;;;;44.20;35.80;;;;;;;1.01;100.00;98644.03;105260;1271;62351;-74
2022/02/04 04:28:06;;;;;;;50.20;36.20;;;;;;;0.95;100.00;98641.24;105312;1271;74052;-74
2022/02/04 04:30:32;;;;;;;46.40;37.80;;;;;;;0.89;100.00;98638.14;105071;1271;66587;-75
2022/02/04 04:32:59;;;;;;;40.90;33.80;;;;;;;0.83;100.00;98636.06;105266;1271;73085;-74
2022/02/04 04:35:28;;;;;;;50.80;39.30;;;;;;;0.72;100.00;98634.30;105258;1271;61355;-75
2022/02/04 04:38:04;;;;;;;54.30;39.00;;;;;;;0.63;100.00;98635.64;105300;1271;61386;-75
2022/02/04 04:41:44;;;;;;;66.00;48.60;;;;;;;0.56;100.00;98639.05;105266;1271;76232;-75
2022/02/04 05:30:28;;;;;;;82.10;60.00;;;;;;;-0.59;100.00;98635.14;105953;1274;61388;-74
2022/02/04 05:32:56;;;;;;;87.10;61.50;;;;;;;-0.60;100.00;98630.63;107054;1271;61124;-74
2022/02/04 05:35:22;;;;;;;80.30;59.30;;;;;;;-0.60;100.00;98634.48;108305;1270;75044;-73
2022/02/04 05:37:51;;;;;;;92.90;66.40;;;;;;;-0.61;100.00;98632.05;108693;1269;68108;-73
2022/02/04 05:40:21;;;;;;;90.60;65.80;;;;;;;-0.60;100.00;98630.98;108348;1271;73711;-73
2022/02/04 05:42:58;;;;;;;84.80;63.80;;;;;;;-0.61;100.00;98628.73;108608;1271;59208;-74
2022/02/04 05:45:30;;;;;;;91.30;67.40;;;;;;;-0.63;100.00;98623.73;108047;1271;60855;-75
2022/02/04 05:48:01;;;;;;;95.50;68.00;;;;;;;-0.64;100.00;98625.15;105363;1271;75373;-75
2022/02/04 05:50:49;;;;;;;101.40;74.40;;;;;;;-0.64;100.00;98624.98;105352;1271;69203;-75
2022/02/04 05:53:18;;;;;;;105.60;76.70;;;;;;;-0.67;100.00;98626.98;105340;1270;73880;-75
2022/02/04 05:56:07;;;;;;;103.50;75.80;;;;;;;-0.68;100.00;98632.95;105307;1271;61293;-75
2022/02/04 06:03:57;;;;;;;104.20;76.30;;;;;;;-0.75;100.00;98634.34;105306;1271;69361;-74
2022/02/04 06:14:21;;;;;;;109.80;79.00;;;;;;;-0.80;100.00;98634.50;105252;1271;74609;-73
2022/02/04 06:22:24;;;;;;;104.10;78.80;;;;;;;-0.80;100.00;98633.42;105245;1271;61167;-74
2022/02/04 06:24:54;;;;;;;93.70;71.10;;;;;;;-0.78;100.00;98629.20;105288;1270;61367;-74
2022/02/04 06:27:24;;;;;;;105.70;77.80;;;;;;;-0.79;100.00;98634.81;105336;1271;75116;-75
2022/02/04 06:29:52;;;;;;;106.40;79.50;;;;;;;-0.80;100.00;98632.93;105066;1273;68007;-74
2022/02/04 06:32:19;;;;;;;110.10;80.30;;;;;;;-0.79;100.00;98630.46;105298;1271;73163;-73
2022/02/04 06:34:47;;;;;;;109.80;83.60;;;;;;;-0.75;100.00;98627.40;105310;1271;61393;-76
2022/02/04 06:37:14;;;;;;;105.00;82.20;;;;;;;-0.69;100.00;98631.39;105074;1271;61346;-74
2022/02/04 06:39:40;;;;;;;100.00;78.30;;;;;;;-0.61;100.00;98641.14;105261;1271;76195;-74
2022/02/04 06:42:07;;;;;;;116.30;82.70;;;;;;;-0.56;100.00;98638.21;105298;1271;61210;-75
2022/02/04 06:44:35;;;;;;;120.50;90.30;;;;;;;-0.51;100.00;98637.02;105298;1271;72610;-77
2022/02/04 06:47:04;;;;;;;123.70;96.20;;;;;;;-0.43;100.00;98636.47;105290;1271;61221;-74
2022/02/04 06:49:31;;;;;;;129.60;97.60;;;;;;;-0.33;100.00;98633.35;105018;1272;61344;-74
2022/02/04 06:51:57;;;;;;;121.50;94.20;;;;;;;-0.25;100.00;98631.72;105299;1271;74122;-75
2022/02/04 06:54:24;;;;;;;122.20;96.50;;;;;;;-0.17;100.00;98633.09;105285;1271;70119;-75
2022/02/04 06:56:51;;;;;;;123.60;100.10;;;;;;;-0.11;100.00;98629.57;105269;1271;74271;-74
2022/02/04 06:59:18;;;;;;;121.50;96.40;;;;;;;-0.05;100.00;98632.71;105155;1274;61294;-76
2022/02/04 07:01:44;;;;;;;128.10;101.10;;;;;;;0.01;100.00;98636.20;105021;1271;61319;-74
2022/02/04 07:04:12;;;;;;;122.40;100.70;;;;;;;0.06;100.00;98633.42;105267;1271;76364;-74
2022/02/04 07:06:51;;;;;;;131.10;104.00;;;;;;;0.13;100.00;98635.67;105294;1271;69265;-74
2022/02/04 07:09:24;;;;;;;145.10;110.60;;;;;;;0.23;100.00;98630.45;105262;1271;73255;-74
2022/02/04 07:19:45;;;;;;;120.10;100.20;;;;;;;0.68;100.00;98643.70;105298;1271;69427;-74
2022/02/04 07:22:16;;;;;;;124.90;100.40;;;;;;;0.75;100.00;98643.15;105080;1271;71327;-74
2022/02/04 07:24:45;;;;;;;129.40;101.10;;;;;;;0.79;100.00;98644.05;105233;1274;61251;-75
2022/02/04 07:27:12;;;;;;;145.70;110.40;;;;;;;0.84;100.00;98639.52;105315;1271;61371;-75
2022/02/04 07:29:40;;;;;;;163.90;120.90;;;;;;;0.91;100.00;98643.14;105031;1272;75695;-76
2022/02/04 07:32:19;;;;;;;155.40;121.80;;;;;;;0.99;100.00;98647.42;105273;1271;69315;-75
2022/02/04 07:42:45;;;;;;;148.90;115.10;;;;;;;1.24;100.00;98653.54;105277;1271;76314;-74
2022/02/04 07:45:12;;;;;;;154.70;117.40;;;;;;;1.33;100.00;98651.32;105328;1269;70183;-74
2022/02/04 07:47:39;;;;;;;140.40;110.10;;;;;;;1.42;100.00;98645.77;105275;1271;74513;-74
2022/02/04 07:50:06;;;;;;;131.20;104.20;;;;;;;1.45;100.00;98645.98;105253;1271;61313;-74
2022/02/04 07:52:34;;;;;;;167.50;129.40;;;;;;;1.47;100.00;98640.67;104970;1271;61328;-74
2022/02/04 07:55:01;;;;;;;145.90;122.80;;;;;;;1.52;100.00;98643.98;105039;1274;76601;-74
2022/02/04 07:57:29;;;;;;;148.10;121.10;;;;;;;1.59;100.00;98643.92;105354;1271;69178;-75
2022/02/04 08:00:01;;;;;;;125.20;107.80;;;;;;;1.67;100.00;98652.04;105257;1271;72432;-76
2022/02/04 08:02:27;;;;;;;135.30;113.80;;;;;;;1.70;100.00;98656.80;104993;1274;61299;-74
2022/02/04 08:04:59;;;;;;;138.70;117.00;;;;;;;1.73;100.00;98659.52;105337;1272;61252;-75
2022/02/04 08:07:29;;;;;;;139.10;116.20;;;;;;;1.76;100.00;98663.80;105261;1271;75013;-76
2022/02/04 08:24:20;;;;;;;161.70;129.30;;;;;;;2.06;100.00;98653.92;105244;1269;70186;-75
2022/02/04 08:48:51;;;;;;;133.10;110.50;;;;;;;2.65;100.00;98659.14;105256;1271;75234;-74
2022/02/04 08:56:36;;;;;;;116.70;97.90;;;;;;;2.98;100.00;98661.66;105222;1271;61642;-74
2022/02/04 08:59:11;;;;;;;122.00;101.30;;;;;;;3.13;100.00;98663.48;105244;1268;61166;-74
2022/02/04 09:01:46;;;;;;;115.60;96.40;;;;;;;3.26;100.00;98657.48;105250;1271;76985;-76
2022/02/04 09:04:17;;;;;;;116.40;98.60;;;;;;;3.39;100.00;98657.48;105271;1271;70356;-74
2022/02/04 09:06:50;;;;;;;120.70;94.50;;;;;;;3.50;100.00;98661.55;105303;1271;73421;-74
2022/02/04 09:16:53;;;;;;;85.50;67.80;;;;;;;3.76;100.00;98660.92;104849;1277;61377;-75
2022/02/04 09:23:14;;;;;;;71.00;56.20;;;;;;;4.33;100.00;98652.33;104914;1277;61526;-74
2022/02/04 09:25:41;;;;;;;67.90;54.00;;;;;;;4.43;100.00;98650.98;104888;1277;61351;-74
2022/02/04 09:28:08;;;;;;;70.60;56.90;;;;;;;4.52;100.00;98652.17;104923;1277;75462;-76
2022/02/04 09:30:34;;;;;;;67.80;55.30;;;;;;;4.61;100.00;98653.50;104849;1276;69262;-74
2022/02/04 09:33:01;;;;;;;65.30;50.70;;;;;;;4.68;100.00;98650.15;104915;1277;74266;-74
2022/02/04 09:35:27;;;;;;;61.80;47.80;;;;;;;4.77;100.00;98650.95;104637;1278;61605;-73
2022/02/04 09:37:55;;;;;;;60.80;45.70;;;;;;;4.84;100.00;98650.43;104891;1277;61169;-75
2022/02/04 09:40:23;;;;;;;55.80;42.90;;;;;;;4.89;100.00;98648.97;104901;1277;76555;-75
2022/02/04 09:42:51;;;;;;;53.00;39.80;;;;;;;4.92;100.00;98647.77;104862;1277;69286;-75
2022/02/04 09:45:20;;;;;;;51.00;41.70;;;;;;;4.99;100.00;98645.65;104597;1278;73290;-76
2022/02/04 09:48:04;;;;;;;57.00;43.30;;;;;;;5.08;100.00;98643.80;105038;1271;61345;-74
2022/02/04 09:50:33;;;;;;;55.00;40.40;;;;;;;5.20;100.00;98647.95;105633;1271;61230;-74
2022/02/04 10:04:50;;;;;;;60.80;44.70;;;;;;;5.32;100.00;98647.15;105274;1271;61996;-74
2022/02/04 10:13:15;;;;;;;72.40;51.90;;;;;;;5.62;100.00;98623.58;105265;1270;73239;-74
2022/02/04 10:15:25;;;;;;;70.00;49.00;;;;;;;5.78;100.00;98620.27;105148;1270;61331;-75
2022/02/04 10:18:13;;;;;;;74.60;51.00;;;;;;;5.93;100.00;98617.88;105248;1269;61156;-76
2022/02/04 10:20:42;;;;;;;64.20;45.00;;;;;;;6.04;100.00;98625.23;105226;1270;76342;-74
2022/02/04 10:23:10;;;;;;;55.40;39.00;;;;;;;6.14;100.00;98621.52;105323;1271;69152;-75
2022/02/04 10:25:40;;;;;;;59.80;38.90;;;;;;;6.25;100.00;98622.70;105268;1271;72901;-74
2022/02/04 10:28:21;;;;;;;60.80;43.00;;;;;;;6.34;100.00;98616.33;105255;1271;61326;-76
2022/02/04 10:31:11;;;;;;;57.80;39.90;;;;;;;6.45;100.00;98612.23;105228;1271;61356;-74
2022/02/04 10:34:09;;;;;;;56.60;38.80;;;;;;;6.55;100.00;98608.45;105398;1271;75123;-74
2022/02/04 10:36:48;;;;;;;49.10;35.60;;;;;;;6.65;100.00;98604.56;105262;1271;70310;-74
2022/02/04 10:42:31;;;;;;;82.40;62.70;;;;;;;6.70;100.00;98598.80;104898;1277;61426;-75
2022/02/04 10:56:18;;;;;;;49.50;34.80;;;;;;;6.93;100.00;98583.69;104850;1277;61580;-73
2022/02/04 11:04:02;;;;;;;50.40;32.70;;;;;;;6.83;100.00;98591.67;104898;1275;69784;-73
2022/02/04 11:35:27;;;;;;;22.20;12.90;;;;;;;6.25;100.00;98597.81;105429;1271;73745;-74
2022/02/04 11:54:59;;;;;;;16.00;10.00;;;;;;;5.93;99.59;98589.66;105236;1277;61425;-74
2022/02/04 11:57:49;;;;;;;16.00;9.00;;;;;;;5.93;99.98;98582.08;105441;1277;75337;-77
2022/02/04 12:00:15;;;;;;;14.20;9.70;;;;;;;5.98;99.92;98586.59;105590;1277;70133;-75
2022/02/04 12:02:43;;;;;;;14.30;9.40;;;;;;;6.07;99.98;98586.25;105512;1277;61442;-75
2022/02/04 12:05:12;;;;;;;16.50;10.40;;;;;;;6.19;99.80;98580.69;108032;1277;59353;-74
2022/02/04 12:07:45;;;;;;;21.10;12.30;;;;;;;6.28;99.52;98578.03;108300;1277;60860;-75
2022/02/04 12:10:11;;;;;;;15.60;9.70;;;;;;;6.36;99.67;98574.61;107929;1277;73649;-74
2022/02/04 12:12:55;;;;;;;18.60;12.60;;;;;;;6.43;99.53;98574.55;107330;1277;60075;-75
2022/02/04 12:15:31;;;;;;;19.40;11.60;;;;;;;6.42;98.89;98573.54;105774;1277;73503;-75
2022/02/04 12:18:06;;;;;;;18.10;11.80;;;;;;;6.40;98.38;98570.34;104867;1277;61422;-77
2022/02/04 12:20:44;;;;;;;16.80;10.70;;;;;;;6.36;98.62;98573.15;104930;1277;61825;-74
2022/02/04 12:23:26;;;;;;;19.30;10.70;;;;;;;6.36;98.76;98571.43;104758;1277;76265;-76
2022/02/04 12:25:57;;;;;;;18.60;10.40;;;;;;;6.36;98.21;98569.13;104959;1271;69306;-77
2022/02/04 12:28:39;;;;;;;16.70;10.70;;;;;;;6.32;98.02;98572.34;105281;1271;73975;-75
2022/02/04 12:31:20;;;;;;;17.60;11.40;;;;;;;6.30;98.35;98571.24;105326;1269;61410;-74
2022/02/04 12:33:49;;;;;;;19.40;11.70;;;;;;;6.27;98.39;98571.23;105280;1271;61306;-74
2022/02/04 12:36:31;;;;;;;18.20;10.70;;;;;;;6.26;97.85;98569.73;105317;1271;76340;-72
2022/02/04 12:39:12;;;;;;;18.40;10.50;;;;;;;6.21;98.13;98567.87;105299;1271;70275;-74
2022/02/04 12:41:51;;;;;;;18.50;11.50;;;;;;;6.18;98.06;98565.93;105264;1271;72131;-73
2022/02/04 12:44:32;;;;;;;18.20;11.20;;;;;;;6.13;97.76;98569.87;105355;1271;61314;-75
2022/02/04 12:47:00;;;;;;;18.90;11.60;;;;;;;6.08;97.89;98570.69;105287;1271;61185;-73
2022/02/04 12:49:30;;;;;;;19.30;10.80;;;;;;;6.04;98.20;98573.39;105347;1271;76140;-78
2022/02/04 12:52:02;;;;;;;18.90;11.40;;;;;;;5.98;97.80;98571.41;105523;1268;69250;-77
2022/02/04 12:54:50;;;;;;;16.40;11.00;;;;;;;5.92;97.95;98562.39;105466;1268;72097;-76
2022/02/04 13:08:18;;;;;;;20.60;12.30;;;;;;;6.02;98.11;98547.22;105343;1268;73306;-81
2022/02/04 13:11:03;;;;;;;20.60;12.80;;;;;;;5.99;97.74;98544.40;105402;1268;61336;-77
2022/02/04 13:13:38;;;;;;;18.90;12.00;;;;;;;5.97;98.02;98546.64;105191;1268;287191;-77
2022/02/04 13:16:08;;;;;;;20.10;13.00;;;;;;;5.96;97.94;98544.77;105576;1268;76192;-79
2022/02/04 13:18:35;;;;;;;21.10;12.90;;;;;;;5.93;97.91;98541.16;105943;1268;69346;-79
2022/02/04 13:21:02;;;;;;;17.10;11.70;;;;;;;5.95;97.97;98537.71;105733;1268;72168;-80
2022/02/04 13:23:31;;;;;;;20.90;12.40;;;;;;;5.98;98.10;98537.73;105862;1268;61287;-79
2022/02/04 13:26:02;;;;;;;17.50;12.30;;;;;;;6.01;97.97;98533.91;105287;1268;61368;-78
2022/02/04 13:28:32;;;;;;;18.20;12.90;;;;;;;6.01;97.96;98530.16;105601;1267;76075;-88
2022/02/04 13:31:23;;;;;;;20.40;13.10;;;;;;;6.03;97.85;98526.91;105091;1271;69315;-76
2022/02/04 13:33:52;;;;;;;22.40;13.20;;;;;;;6.04;98.03;98525.05;105261;1271;73813;-74
2022/02/04 13:36:39;;;;;;;17.30;11.70;;;;;;;6.04;98.14;98527.86;105278;1271;61276;-74
2022/02/04 13:39:24;;;;;;;19.30;12.20;;;;;;;6.05;97.68;98521.65;105270;1271;61281;-75
2022/02/04 13:47:24;;;;;;;18.20;11.60;;;;;;;6.03;97.75;98517.55;105300;1271;73934;-75
2022/02/04 13:57:53;;;;;;;23.20;14.30;;;;;;;6.02;97.75;98518.33;105349;1271;69301;-72
2022/02/04 14:02:53;;;;;;;16.00;10.20;;;;;;;5.96;97.39;98514.59;105002;1270;61705;-75
2022/02/04 14:05:34;;;;;;;25.90;19.00;;;;;;;5.89;97.43;98511.59;105262;1271;61134;-75
2022/02/04 14:08:27;;;;;;;;;;;;;;;5.83;97.49;98512.97;105305;1270;75144;-75
2022/02/04 14:10:57;;;;;;;29.00;17.90;;;;;;;5.73;97.47;98510.19;105347;1271;69509;-75
2022/02/04 14:13:27;;;;;;;28.70;13.90;;;;;;;5.68;97.51;98513.09;105377;1271;73233;-75
2022/02/04 14:15:59;;;;;;;19.10;11.00;;;;;;;5.62;97.48;98515.19;105190;1271;61348;-74
2022/02/04 14:18:28;;;;;;;16.30;9.40;;;;;;;5.57;97.49;98517.23;105501;1271;61392;-74
2022/02/04 14:20:55;;;;;;;21.20;11.60;;;;;;;5.53;97.77;98519.92;105471;1270;76376;-74
2022/02/04 14:23:23;;;;;;;16.70;10.10;;;;;;;5.49;97.83;98517.11;105280;1270;69067;-74
2022/02/04 14:50:50;;;;;;;23.50;13.20;;;;;;;5.36;98.04;98532.78;105302;1268;70304;-74
2022/02/04 14:53:40;;;;;;;24.00;13.00;;;;;;;5.33;98.30;98534.16;105260;1268;74328;-74
2022/02/04 15:01:22;;;;;;;24.60;15.30;;;;;;;5.22;98.32;98532.63;105360;1268;76208;-74
2022/02/04 15:04:22;;;;;;;27.40;15.70;;;;;;;5.19;98.46;98532.61;105325;1268;69169;-75
2022/02/04 15:06:41;;;;;;;34.00;17.30;;;;;;;5.16;98.52;98533.48;105323;1268;72536;-76
2022/02/04 15:09:11;;;;;;;28.40;16.60;;;;;;;5.12;98.61;98534.59;105045;1271;61425;-78
2022/02/04 15:11:43;;;;;;;32.70;18.50;;;;;;;5.08;98.68;98536.23;105345;1269;61374;-75
2022/02/04 15:14:11;;;;;;;29.80;15.60;;;;;;;5.03;98.92;98537.16;105936;1268;76389;-75
2022/02/04 15:16:39;;;;;;;31.00;18.40;;;;;;;4.99;98.90;98533.86;106392;1268;69342;-75
2022/02/04 15:19:05;;;;;;;34.40;19.60;;;;;;;4.97;99.01;98540.27;105281;1268;72853;-77
2022/02/04 15:21:33;;;;;;;24.70;15.80;;;;;;;4.93;99.18;98537.36;105310;1268;61260;-75
2022/02/04 15:24:00;;;;;;;24.10;15.90;;;;;;;4.89;99.27;98531.90;105310;1268;61256;-73
2022/02/04 15:26:29;;;;;;;23.70;14.80;;;;;;;4.87;99.42;98536.77;105013;1268;75379;-75
2022/02/04 15:29:07;;;;;;;24.90;15.50;;;;;;;4.85;99.60;98535.48;105530;1268;69332;-75
2022/02/04 15:31:48;;;;;;;24.10;16.60;;;;;;;4.82;99.69;98538.60;106939;1269;72862;-75
2022/02/04 15:34:16;;;;;;;25.50;14.20;;;;;;;4.79;99.75;98539.25;105057;1269;61397;-76
2022/02/04 15:36:46;;;;;;;27.70;18.00;;;;;;;4.77;99.75;98542.19;105323;1268;61411;-75
2022/02/04 15:39:25;;;;;;;25.80;15.50;;;;;;;4.75;99.78;98538.22;105414;1269;76307;-76
2022/02/04 15:41:58;;;;;;;25.40;15.40;;;;;;;4.74;99.83;98538.30;105399;1271;69213;-75
2022/02/04 15:44:37;;;;;;;26.20;15.90;;;;;;;4.72;99.99;98539.98;105339;1269;73509;-75
2022/02/04 15:47:31;;;;;;;29.00;16.50;;;;;;;4.71;99.97;98537.21;105265;1271;61145;-74
2022/02/04 15:52:53;;;;;;;29.70;18.80;;;;;;;4.67;100.00;98539.68;105278;1271;76395;-75
2022/02/04 15:58:13;;;;;;;33.60;21.10;;;;;;;4.64;100.00;98537.02;105270;1270;61352;-75
2022/02/04 16:05:44;;;;;;;46.80;26.10;;;;;;;4.59;100.00;98535.71;105324;1269;61271;-75
2022/02/04 16:08:16;;;;;;;45.10;29.40;;;;;;;4.57;100.00;98529.82;105341;1269;69258;-75
2022/02/04 16:11:00;;;;;;;38.50;24.60;;;;;;;4.56;100.00;98525.81;105296;1271;73193;-75
2022/02/04 16:16:17;;;;;;;37.60;22.80;;;;;;;4.54;100.00;98524.52;105275;1269;61580;-76
2022/02/04 16:19:02;;;;;;;40.80;23.00;;;;;;;4.53;100.00;98520.86;105302;1268;75327;-73
2022/02/04 16:29:15;;;;;;;35.40;19.60;;;;;;;4.50;100.00;98512.23;105327;1268;61426;-75
2022/02/04 16:31:43;;;;;;;35.20;19.00;;;;;;;4.49;100.00;98504.34;105398;1268;76399;-74
2022/02/04 16:34:10;;;;;;;35.20;20.20;;;;;;;4.49;100.00;98499.10;105030;1271;69480;-75
2022/02/04 16:36:40;;;;;;;40.00;21.70;;;;;;;4.48;100.00;98496.52;105293;1269;74277;-75
2022/02/04 16:39:09;;;;;;;38.20;22.00;;;;;;;4.46;100.00;98494.66;105290;1268;61313;-74
2022/02/04 16:41:49;;;;;;;38.20;22.40;;;;;;;4.45;100.00;98491.56;105317;1269;61801;-75
2022/02/04 16:44:16;;;;;;;40.50;22.30;;;;;;;4.44;100.00;98491.60;105301;1269;75132;-75
2022/02/04 16:46:43;;;;;;;39.40;22.10;;;;;;;4.43;100.00;98491.66;105421;1269;70119;-76
2022/02/04 16:49:10;;;;;;;42.10;23.30;;;;;;;4.41;100.00;98491.41;105008;1271;73290;-75
2022/02/04 16:51:40;;;;;;;43.70;24.00;;;;;;;4.40;100.00;98487.06;105288;1268;61311;-75
2022/02/04 16:54:07;;;;;;;48.00;26.50;;;;;;;4.38;100.00;98489.42;105059;1271;61406;-75
2022/02/04 16:56:34;;;;;;;52.10;30.30;;;;;;;4.36;100.00;98493.22;105061;1271;75998;-75
2022/02/04 16:59:01;;;;;;;47.50;27.80;;;;;;;4.33;100.00;98496.16;105039;1271;69747;-75
2022/02/04 17:01:28;;;;;;;45.00;26.40;;;;;;;4.32;100.00;98499.95;105277;1268;74373;-75
2022/02/04 17:03:55;;;;;;;39.30;24.40;;;;;;;4.30;100.00;98503.54;105057;1271;61290;-76
2022/02/04 17:06:21;;;;;;;39.30;24.40;;;;;;;4.29;100.00;98502.55;105285;1271;61268;-75
2022/02/04 17:08:53;;;;;;;39.00;23.70;;;;;;;4.27;100.00;98502.45;105346;1268;75380;-75
2022/02/04 17:11:24;;;;;;;45.20;27.50;;;;;;;4.26;100.00;98496.17;105360;1268;68943;-74
2022/02/04 17:13:51;;;;;;;43.60;27.40;;;;;;;4.26;100.00;98496.00;105306;1268;73181;-71
2022/02/04 17:16:17;;;;;;;47.30;29.60;;;;;;;4.26;100.00;98496.37;105352;1269;61332;-76
2022/02/04 17:18:45;;;;;;;50.60;31.00;;;;;;;4.24;100.00;98499.45;105357;1268;61234;-76
2022/02/04 17:21:13;;;;;;;46.30;28.60;;;;;;;4.22;100.00;98498.69;105414;1269;76088;-77
2022/02/04 17:23:44;;;;;;;46.10;27.90;;;;;;;4.19;100.00;98494.92;105116;1271;69388;-74
2022/02/04 17:26:15;;;;;;;54.10;31.10;;;;;;;4.18;100.00;98493.73;105363;1269;73431;-75
2022/02/04 17:28:41;;;;;;;51.30;31.10;;;;;;;4.17;100.00;98493.60;105329;1268;61292;-75
2022/02/04 17:31:08;;;;;;;47.90;29.70;;;;;;;4.18;100.00;98494.98;105382;1268;61882;-75
2022/02/04 17:33:38;;;;;;;47.30;28.50;;;;;;;4.17;100.00;98494.15;105081;1272;74625;-75
2022/02/04 17:36:06;;;;;;;45.90;26.90;;;;;;;4.17;100.00;98492.04;105464;1268;69139;-77
2022/02/04 17:38:33;;;;;;;46.50;27.50;;;;;;;4.17;100.00;98490.47;105495;1268;74253;-74
2022/02/04 17:41:00;;;;;;;57.20;32.10;;;;;;;4.17;100.00;98488.91;105439;1268;61286;-75
2022/02/04 17:43:27;;;;;;;49.90;30.40;;;;;;;4.17;100.00;98490.65;105230;1271;61781;-75
2022/02/04 17:45:54;;;;;;;56.40;30.50;;;;;;;4.17;100.00;98489.77;105331;1271;75756;-75
2022/02/04 17:48:38;;;;;;;46.90;26.90;;;;;;;4.16;100.00;98490.84;105799;1269;69337;-75
2022/02/04 17:53:50;;;;;;;36.80;22.30;;;;;;;4.16;100.00;98498.95;106899;1269;61200;-76
2022/02/04 17:56:49;;;;;;;32.60;23.10;;;;;;;4.15;100.00;98493.36;106279;1269;61867;-75
2022/02/04 18:07:22;;;;;;;39.30;24.10;;;;;;;4.18;100.00;98477.55;108467;1268;59511;-74
2022/02/04 18:09:49;;;;;;;40.20;26.90;;;;;;;4.20;100.00;98474.16;106512;1271;61253;-76
2022/02/04 18:12:21;;;;;;;41.60;25.50;;;;;;;4.21;100.00;98474.66;105047;1271;75399;-75